createdAt,value
2019-05-15T00:00:21.449Z,17.40
2019-05-15T00:03:45.232Z,18.40
2019-05-15T00:07:09.052Z,18.13
2019-05-15T00:10:32.885Z,19.20
2019-05-15T00:13:58.795Z,18.20
2019-05-15T00:17:22.242Z,19.03
2019-05-15T00:20:49.344Z,18.57
2019-05-15T00:24:13.074Z,18.63
2019-05-15T00:27:38.618Z,17.67
2019-05-15T00:31:02.880Z,18.93
2019-05-15T00:34:28.591Z,18.90
2019-05-15T00:37:52.388Z,19.10
2019-05-15T00:41:18.340Z,19.10
2019-05-15T00:44:41.849Z,18.80
2019-05-15T00:48:05.708Z,20.83
2019-05-15T00:51:29.494Z,19.20
2019-05-15T00:54:53.517Z,24.60
2019-05-15T00:58:20.032Z,18.43
2019-05-15T01:01:42.928Z,17.80
2019-05-15T01:05:08.275Z,19.53
2019-05-15T01:08:32.158Z,22.10
2019-05-15T01:11:55.961Z,27.90
2019-05-15T01:15:20.396Z,24.30
2019-05-15T01:18:44.170Z,20.10
2019-05-15T01:22:08.731Z,21.13
2019-05-15T01:25:32.672Z,22.40
2019-05-15T01:28:58.436Z,22.87
2019-05-15T01:32:22.076Z,17.50
2019-05-15T01:35:46.029Z,18.93
2019-05-15T01:39:09.870Z,18.47
2019-05-15T01:42:33.635Z,19.10
2019-05-15T01:45:58.876Z,18.93
2019-05-15T01:49:22.844Z,18.87
2019-05-15T01:52:47.909Z,20.73
2019-05-15T01:56:11.728Z,20.27
2019-05-15T01:59:35.645Z,18.63
2019-05-15T02:02:59.520Z,21.33
2019-05-15T02:06:23.316Z,22.13
2019-05-15T02:09:49.240Z,22.37
2019-05-15T02:13:12.778Z,52.93
2019-05-15T02:16:39.121Z,21.80
2019-05-15T02:20:02.166Z,26.17
2019-05-15T02:23:27.894Z,20.70
2019-05-15T02:26:51.575Z,20.43
2019-05-15T02:30:27.825Z,21.73
2019-05-15T02:33:42.321Z,21.27
2019-05-15T02:37:08.780Z,21.10
2019-05-15T02:40:31.532Z,22.37
2019-05-15T02:43:55.479Z,20.27
2019-05-15T02:47:19.906Z,21.00
2019-05-15T02:50:44.037Z,20.57
2019-05-15T02:54:10.216Z,20.93
2019-05-15T02:57:33.395Z,19.73
2019-05-15T03:00:59.232Z,19.07
2019-05-15T03:04:22.744Z,19.13
2019-05-15T03:07:49.199Z,18.50
2019-05-15T03:11:11.989Z,17.70
2019-05-15T03:14:35.722Z,17.30
2019-05-15T03:18:00.420Z,17.23
2019-05-15T03:21:24.337Z,17.80
2019-05-15T03:24:50.177Z,16.13
2019-05-15T03:28:13.816Z,15.77
2019-05-15T03:31:56.767Z,17.90
2019-05-15T03:35:05.335Z,16.17
2019-05-15T03:38:29.947Z,13.10
2019-05-15T03:41:54.122Z,15.33
2019-05-15T03:45:19.222Z,18.63
2019-05-15T03:48:43.200Z,16.30
2019-05-15T03:52:09.904Z,15.90
2019-05-15T03:55:32.481Z,12.00
2019-05-15T03:58:59.520Z,12.63
2019-05-15T04:02:21.875Z,11.27
2019-05-15T04:05:45.603Z,10.77
2019-05-15T04:09:09.815Z,10.43
2019-05-15T04:12:33.801Z,9.57
2019-05-15T04:15:59.334Z,8.57
2019-05-15T04:19:23.095Z,11.70
2019-05-15T04:22:49.217Z,11.17
2019-05-15T04:26:12.601Z,10.73
2019-05-15T04:29:39.499Z,10.47
2019-05-15T04:33:01.926Z,15.87
2019-05-15T04:36:25.596Z,14.13
2019-05-15T04:39:49.475Z,14.23
2019-05-15T04:43:13.629Z,12.77
2019-05-15T04:46:39.186Z,12.97
2019-05-15T04:50:03.138Z,14.23
2019-05-15T04:53:29.627Z,14.10
2019-05-15T04:56:52.363Z,19.70
2019-05-15T05:00:19.943Z,15.03
2019-05-15T05:03:43.866Z,17.67
2019-05-15T05:07:09.409Z,16.63
2019-05-15T05:10:33.796Z,18.63
2019-05-15T05:13:59.121Z,20.10
2019-05-15T05:17:23.263Z,19.93
2019-05-15T05:20:48.440Z,25.40
2019-05-15T05:24:12.574Z,24.00
2019-05-15T05:27:38.281Z,23.90
2019-05-15T05:31:02.539Z,22.83
2019-05-15T05:34:28.233Z,23.57
2019-05-15T05:37:51.818Z,24.00
2019-05-15T05:41:15.618Z,24.13
2019-05-15T05:44:42.640Z,25.40
2019-05-15T05:48:04.918Z,27.10
2019-05-15T05:51:28.798Z,27.97
2019-05-15T05:54:52.648Z,26.43
2019-05-15T05:58:19.484Z,30.47
2019-05-15T06:01:44.142Z,29.00
2019-05-15T06:05:08.001Z,28.83
2019-05-15T06:08:32.062Z,30.90
2019-05-15T06:11:58.146Z,23.97
2019-05-15T06:15:21.351Z,26.47
2019-05-15T06:18:45.129Z,23.57
2019-05-15T06:22:08.972Z,24.33
2019-05-15T06:25:32.864Z,23.00
2019-05-15T06:28:58.335Z,25.07
2019-05-15T06:32:22.123Z,22.83
2019-05-15T06:35:48.559Z,22.23
2019-05-15T06:39:11.772Z,21.30
2019-05-15T06:42:39.257Z,20.90
2019-05-15T06:46:03.616Z,20.60
2019-05-15T06:49:28.635Z,20.90
2019-05-15T06:52:54.177Z,21.10
2019-05-15T06:56:18.723Z,22.53
2019-05-15T06:59:42.936Z,21.00
2019-05-15T07:03:20.349Z,18.43
2019-05-15T07:06:32.295Z,17.37
2019-05-15T07:09:58.277Z,19.17
2019-05-15T07:13:21.858Z,19.37
2019-05-15T07:16:48.481Z,17.00
2019-05-15T07:20:11.692Z,19.33
2019-05-15T07:23:38.406Z,16.83
2019-05-15T07:27:01.337Z,15.37
2019-05-15T07:30:25.506Z,14.33
2019-05-15T07:33:49.407Z,13.73
2019-05-15T07:37:13.524Z,13.73
2019-05-15T07:40:38.582Z,12.80
2019-05-15T07:44:02.830Z,13.40
2019-05-15T07:47:29.303Z,13.20
2019-05-15T07:50:52.444Z,13.30
2019-05-15T07:54:18.213Z,13.00
2019-05-15T07:57:41.886Z,13.60
2019-05-15T08:01:05.929Z,13.60
2019-05-15T08:04:32.931Z,12.43
2019-05-15T08:07:58.050Z,12.33
2019-05-15T08:11:24.670Z,12.17
2019-05-15T08:14:50.024Z,13.57
2019-05-15T08:18:13.083Z,15.07
2019-05-15T08:21:38.524Z,13.33
2019-05-15T08:25:02.535Z,12.10
2019-05-15T08:28:28.570Z,12.73
2019-05-15T08:31:51.836Z,14.80
2019-05-15T08:35:18.903Z,13.33
2019-05-15T08:38:41.454Z,12.73
2019-05-15T08:42:05.271Z,12.90
2019-05-15T08:45:29.218Z,19.07
2019-05-15T08:48:53.010Z,13.83
2019-05-15T08:52:18.943Z,22.40
2019-05-15T08:55:42.504Z,14.47
2019-05-15T08:59:08.694Z,14.03
2019-05-15T09:02:31.819Z,15.70
2019-05-15T09:05:55.668Z,16.73
2019-05-15T09:09:19.411Z,28.77
2019-05-15T09:12:43.342Z,20.03
2019-05-15T09:16:08.264Z,17.57
2019-05-15T09:19:32.391Z,17.57
2019-05-15T09:22:58.190Z,20.97
2019-05-15T09:26:21.669Z,20.07
2019-05-15T09:29:45.411Z,19.00
2019-05-15T09:33:09.359Z,17.90
2019-05-15T09:36:33.261Z,20.20
2019-05-15T09:39:58.383Z,18.07
2019-05-15T09:43:22.651Z,19.10
2019-05-15T09:46:48.758Z,18.70
2019-05-15T09:50:13.441Z,18.57
2019-05-15T09:53:39.376Z,19.40
2019-05-15T09:57:02.866Z,17.37
2019-05-15T10:00:29.253Z,16.20
2019-05-15T10:03:52.644Z,16.90
2019-05-15T10:07:19.118Z,18.37
2019-05-15T10:10:41.829Z,16.30
2019-05-15T10:14:05.803Z,19.60
2019-05-15T10:17:29.643Z,19.53
2019-05-15T10:20:53.359Z,21.60
2019-05-15T10:24:18.193Z,15.10
2019-05-15T10:27:42.335Z,13.90
2019-05-15T10:31:09.200Z,14.03
2019-05-15T10:34:32.024Z,13.80
2019-05-15T10:37:56.021Z,16.70
2019-05-15T10:41:19.856Z,13.33
2019-05-15T10:44:43.789Z,13.00
2019-05-15T10:48:09.333Z,16.50
2019-05-15T10:51:33.248Z,15.63
2019-05-15T10:54:58.061Z,12.10
2019-05-15T10:58:22.641Z,11.63
2019-05-15T11:01:48.790Z,9.43
2019-05-15T11:05:13.137Z,9.77
2019-05-15T11:08:40.211Z,12.80
2019-05-15T11:12:02.817Z,11.83
2019-05-15T11:15:29.051Z,16.53
2019-05-15T11:18:53.642Z,11.73
2019-05-15T11:22:18.796Z,11.87
2019-05-15T11:25:43.034Z,23.63
2019-05-15T11:29:09.654Z,13.63
2019-05-15T11:32:32.512Z,10.73
2019-05-15T11:36:04.157Z,12.93
2019-05-15T11:39:21.962Z,10.43
2019-05-15T11:42:48.579Z,8.17
2019-05-15T11:46:11.385Z,8.70
2019-05-15T11:49:35.149Z,6.43
2019-05-15T11:52:59.728Z,7.33
2019-05-15T11:56:23.612Z,8.33
2019-05-15T11:59:54.839Z,8.10
2019-05-15T12:03:12.952Z,10.93
2019-05-15T12:06:38.521Z,6.17
2019-05-15T12:10:02.578Z,8.13
2019-05-15T12:13:27.945Z,7.67
2019-05-15T12:17:05.145Z,5.97
2019-05-15T12:20:19.446Z,8.93
2019-05-15T12:23:43.433Z,5.93
2019-05-15T12:27:15.336Z,6.20
2019-05-15T12:30:32.970Z,6.10
2019-05-15T12:33:58.492Z,5.07
2019-05-15T12:37:22.529Z,4.30
2019-05-15T13:01:21.974Z,8.57
2019-05-15T13:04:44.616Z,6.90
2019-05-15T13:08:08.736Z,10.33
2019-05-15T13:11:32.710Z,7.10
2019-05-15T13:14:58.899Z,8.60
2019-05-15T13:18:22.217Z,8.57
2019-05-15T13:21:50.821Z,20.93
2019-05-15T13:25:11.857Z,12.60
2019-05-15T13:28:35.531Z,12.90
2019-05-15T13:31:59.369Z,13.50
2019-05-15T13:35:23.490Z,12.47
2019-05-15T13:38:48.268Z,10.87
2019-05-15T13:42:13.493Z,13.70
2019-05-15T13:45:38.641Z,12.93
2019-05-15T13:49:02.980Z,14.03
2019-05-15T13:52:28.343Z,25.83
2019-05-15T13:55:52.294Z,18.73
2019-05-15T13:59:16.196Z,16.20
2019-05-15T14:02:40.138Z,16.63
2019-05-15T14:06:04.064Z,18.27
2019-05-15T14:09:33.242Z,18.70
2019-05-15T14:12:53.428Z,16.77
2019-05-15T14:16:19.278Z,16.37
2019-05-15T14:19:42.717Z,18.70
2019-05-15T14:23:08.731Z,16.00
2019-05-15T14:26:32.108Z,16.40
2019-05-15T14:29:58.111Z,18.60
2019-05-15T14:33:21.668Z,12.80
2019-05-15T14:36:45.551Z,15.33
2019-05-15T14:40:10.688Z,22.30
2019-05-15T14:43:34.723Z,16.17
2019-05-15T14:46:59.445Z,16.17
2019-05-15T14:50:24.556Z,12.33
2019-05-15T14:53:49.140Z,15.43
2019-05-15T14:57:13.683Z,19.37
2019-05-15T15:00:41.651Z,22.70
2019-05-15T15:04:03.686Z,14.17
2019-05-15T15:07:28.335Z,17.80
2019-05-15T15:10:52.297Z,15.23
2019-05-15T15:14:18.019Z,16.20
2019-05-15T15:17:42.320Z,18.27
2019-05-15T15:21:08.465Z,22.10
2019-05-15T15:24:32.035Z,19.63
2019-05-15T15:27:58.661Z,19.00
2019-05-15T15:31:22.380Z,19.03
2019-05-15T15:34:47.986Z,20.50
2019-05-15T15:38:13.562Z,21.67
2019-05-15T15:41:39.031Z,53.37
2019-05-15T15:45:03.562Z,23.27
2019-05-15T15:48:28.413Z,20.90
2019-05-15T15:51:52.931Z,22.43
2019-05-15T15:55:18.476Z,22.10
2019-05-15T15:58:42.584Z,25.73
2019-05-15T16:02:08.852Z,21.97
2019-05-15T16:05:32.306Z,20.67
2019-05-15T16:08:56.208Z,22.77
2019-05-15T16:12:20.073Z,22.20
2019-05-15T16:15:44.076Z,20.27
2019-05-15T16:19:07.892Z,18.80
2019-05-15T16:22:31.814Z,21.53
2019-05-15T16:25:58.246Z,22.40
2019-05-15T16:29:21.890Z,29.10
2019-05-15T16:32:45.710Z,20.67
2019-05-15T16:36:09.743Z,24.27
2019-05-15T16:39:34.235Z,25.17
2019-05-15T16:42:58.581Z,23.57
2019-05-15T16:46:24.448Z,24.33
2019-05-15T16:49:48.671Z,24.67
2019-05-15T16:53:12.616Z,24.27
2019-05-15T16:56:37.394Z,19.90
2019-05-15T17:00:01.991Z,17.80
2019-05-15T17:03:25.881Z,18.07
2019-05-15T17:06:49.755Z,18.23
2019-05-15T17:10:13.685Z,25.13
2019-05-15T17:13:39.406Z,16.37
2019-05-15T17:17:03.964Z,17.40
2019-05-15T17:20:28.430Z,17.73
2019-05-15T17:23:53.090Z,21.87
2019-05-15T17:27:18.631Z,25.20
2019-05-15T17:30:42.656Z,23.57
2019-05-15T17:34:06.618Z,39.03
2019-05-15T17:37:31.459Z,24.23
2019-05-15T17:40:57.710Z,22.53
2019-05-15T17:44:20.793Z,22.33
2019-05-15T17:47:44.959Z,23.37
2019-05-15T17:51:09.254Z,24.00
2019-05-15T17:54:33.441Z,23.07
2019-05-15T17:58:00.893Z,33.10
2019-05-15T18:01:23.853Z,27.00
2019-05-15T18:04:48.087Z,29.33
2019-05-15T18:08:12.345Z,24.90
2019-05-15T18:11:38.196Z,25.70
2019-05-15T18:15:01.893Z,21.53
2019-05-15T18:18:26.131Z,24.07
2019-05-15T18:21:50.967Z,22.80
2019-05-15T18:25:15.034Z,22.73
2019-05-15T18:28:39.586Z,24.67
2019-05-15T18:32:04.629Z,22.10
2019-05-15T18:35:37.977Z,23.67
2019-05-15T18:39:02.262Z,21.50
2019-05-15T18:42:26.046Z,40.63
2019-05-15T18:45:51.915Z,25.97
2019-05-15T18:49:17.956Z,24.83
2019-05-15T18:52:42.475Z,29.73
2019-05-15T18:56:09.001Z,25.83
2019-05-15T18:59:33.216Z,28.57
2019-05-15T19:02:59.441Z,26.60
2019-05-15T19:06:23.871Z,25.80
2019-05-15T19:09:48.090Z,32.83
2019-05-15T19:13:12.831Z,24.93
2019-05-15T19:16:38.746Z,29.33
2019-05-15T19:20:04.366Z,28.23
2019-05-15T19:23:28.619Z,27.63
2019-05-15T19:26:52.677Z,28.50
2019-05-15T19:30:18.899Z,51.87
2019-05-15T19:33:42.432Z,39.47
2019-05-15T19:37:06.351Z,49.77
2019-05-15T19:40:30.221Z,28.87
2019-05-15T19:43:54.085Z,26.67
2019-05-15T19:47:18.674Z,48.30
2019-05-15T19:50:42.674Z,46.77
2019-05-15T19:54:09.237Z,41.13
2019-05-15T19:57:32.942Z,34.87
2019-05-15T20:00:56.910Z,57.20
2019-05-15T20:04:20.911Z,47.73
2019-05-15T20:07:44.940Z,55.27
2019-05-15T20:11:10.545Z,39.73
2019-05-15T20:14:34.665Z,75.63
2019-05-15T20:17:59.444Z,144.90
2019-05-15T20:21:23.570Z,149.90
2019-05-15T20:24:48.260Z,114.00
2019-05-15T20:28:12.157Z,140.90
2019-05-15T20:31:38.383Z,69.73
2019-05-15T20:35:02.448Z,59.47
2019-05-15T20:38:28.552Z,109.00
2019-05-15T20:41:53.347Z,107.17
2019-05-15T20:45:18.490Z,143.87
2019-05-15T20:48:42.823Z,98.03
2019-05-15T20:52:06.797Z,122.80
2019-05-15T20:55:30.703Z,30.70
2019-05-15T20:58:54.620Z,20.03
2019-05-15T21:02:18.799Z,23.77
2019-05-15T21:05:42.737Z,28.13
2019-05-15T21:09:08.409Z,34.23
2019-05-15T21:12:32.471Z,25.27
2019-05-15T21:15:58.528Z,25.37
2019-05-15T21:19:22.177Z,26.93
2019-05-15T21:22:49.037Z,29.23
2019-05-15T21:26:12.356Z,24.20
2019-05-15T21:29:38.111Z,25.47
2019-05-15T21:33:02.144Z,24.60
2019-05-15T21:36:28.233Z,21.90
2019-05-15T21:39:52.218Z,25.50
2019-05-15T21:43:17.858Z,30.37
2019-05-15T21:46:41.757Z,29.63
2019-05-15T21:50:07.968Z,23.77
2019-05-15T21:53:31.665Z,23.00
2019-05-15T21:57:12.770Z,24.53
2019-05-15T22:00:25.968Z,25.37
2019-05-15T22:03:50.888Z,26.90
2019-05-15T22:07:14.736Z,27.30
2019-05-15T22:10:38.935Z,25.87
2019-05-15T22:14:02.998Z,24.40
2019-05-15T22:17:29.276Z,25.53
2019-05-15T22:20:52.551Z,25.77
2019-05-15T22:24:18.185Z,21.73
2019-05-15T22:27:42.144Z,19.37
2019-05-15T22:31:05.985Z,20.00
2019-05-15T22:34:29.917Z,26.63
2019-05-15T22:37:53.684Z,21.67
2019-05-15T22:41:19.198Z,22.77
2019-05-15T22:44:43.258Z,23.63
2019-05-15T22:48:07.170Z,31.07
2019-05-15T22:51:30.945Z,29.13
2019-05-15T22:54:55.006Z,19.70
2019-05-15T22:58:18.976Z,20.03
2019-05-15T23:01:42.971Z,18.87
2019-05-15T23:05:23.123Z,21.83
2019-05-15T23:08:33.298Z,18.63
2019-05-15T23:11:58.806Z,24.37
2019-05-15T23:15:22.743Z,22.47
2019-05-15T23:18:48.505Z,23.00
2019-05-15T23:22:12.427Z,24.10
2019-05-15T23:25:38.064Z,18.83
2019-05-15T23:29:01.904Z,20.10
2019-05-15T23:32:25.958Z,20.73
2019-05-15T23:35:49.818Z,19.47
2019-05-15T23:39:13.738Z,17.43
2019-05-15T23:42:39.029Z,16.87
2019-05-15T23:46:03.244Z,19.47
2019-05-15T23:49:27.861Z,18.30
2019-05-15T23:52:51.822Z,17.30
2019-05-15T23:56:18.626Z,15.93
2019-05-15T23:59:41.115Z,14.50
